createdAt,value
2023-04-10T00:04:29.268Z,101632.19
2023-04-10T00:09:34.590Z,101627.72
2023-04-10T00:14:38.293Z,101624.41
2023-04-10T00:19:41.948Z,101620.75
2023-04-10T00:24:47.170Z,101618.53
2023-04-10T00:29:50.859Z,101613.38
2023-04-10T00:34:54.454Z,101616.63
2023-04-10T00:39:59.744Z,101603.84
2023-04-10T00:45:03.464Z,101606.09
2023-04-10T00:50:07.991Z,101595.28
2023-04-10T00:55:13.446Z,101600.06
2023-04-10T01:00:17.881Z,101605.56
2023-04-10T01:05:21.606Z,101608.56
2023-04-10T01:10:37.516Z,101614.31
2023-04-10T01:15:48.600Z,101597.59
2023-04-10T01:20:52.331Z,101602.03
2023-04-10T01:26:00.115Z,101604.28
2023-04-10T01:31:08.422Z,101599.88
2023-04-10T01:36:12.974Z,101597.78
2023-04-10T01:41:19.406Z,101597.66
2023-04-10T01:46:25.967Z,101596.78
2023-04-10T01:51:31.269Z,101594.28
2023-04-10T01:56:35.642Z,101598.75
2023-04-10T02:01:40.985Z,101597.69
2023-04-10T02:06:52.174Z,101587.69
2023-04-10T02:12:03.691Z,101589.81
2023-04-10T02:17:10.351Z,101598.06
2023-04-10T02:22:14.287Z,101589.69
2023-04-10T02:27:27.329Z,101588.31
2023-04-10T02:32:33.197Z,101585.31
2023-04-10T02:37:36.837Z,101578.81
2023-04-10T02:42:40.488Z,101582.78
2023-04-10T02:47:45.811Z,101582.19
2023-04-10T02:52:49.433Z,101594.56
2023-04-10T02:57:53.069Z,101587.22
2023-04-10T03:02:58.616Z,101580.75
2023-04-10T03:08:02.363Z,101583.13
2023-04-10T03:13:06.069Z,101586.88
2023-04-10T03:18:11.448Z,101578.47
2023-04-10T03:23:15.059Z,101578.16
2023-04-10T03:28:18.719Z,101584.03
2023-04-10T03:33:24.080Z,101581.31
2023-04-10T03:38:27.762Z,101602.88
2023-04-10T03:43:31.585Z,101604.91
2023-04-10T03:48:36.913Z,101596.00
2023-04-10T03:53:40.590Z,101609.66
2023-04-10T03:58:44.211Z,101614.38
2023-04-10T04:03:49.718Z,101620.91
2023-04-10T04:08:52.644Z,101616.97
2023-04-10T04:13:56.425Z,101624.84
2023-04-10T04:19:01.680Z,101614.84
2023-04-10T04:24:05.514Z,101616.03
2023-04-10T04:29:09.157Z,101618.50
2023-04-10T04:34:14.432Z,101619.50
2023-04-10T04:39:18.143Z,101614.50
2023-04-10T04:44:21.728Z,101619.06
2023-04-10T04:49:27.038Z,101612.88
2023-04-10T04:54:30.651Z,101617.47
2023-04-10T04:59:34.253Z,101624.56
2023-04-10T05:04:40.452Z,101615.16
2023-04-10T05:09:44.097Z,101614.75
2023-04-10T05:14:48.153Z,101617.41
2023-04-10T05:19:53.450Z,101604.44
2023-04-10T05:24:57.185Z,101603.69
2023-04-10T05:30:01.664Z,101608.28
2023-04-10T05:35:07.996Z,101613.44
2023-04-10T05:40:12.032Z,101613.69
2023-04-10T05:45:15.662Z,101609.56
2023-04-10T05:50:22.875Z,101606.91
2023-04-10T05:55:26.834Z,101603.69
2023-04-10T06:00:30.553Z,101593.59
2023-04-10T06:05:36.195Z,101600.06
2023-04-10T06:10:39.893Z,101598.63
2023-04-10T06:15:43.526Z,101601.56
2023-04-10T06:20:48.817Z,101606.94
2023-04-10T06:25:52.506Z,101607.09
2023-04-10T06:30:56.222Z,101609.47
2023-04-10T06:36:01.629Z,101603.31
2023-04-10T06:41:06.182Z,101596.44
2023-04-10T06:46:09.895Z,101593.13
2023-04-10T06:51:16.141Z,101598.69
2023-04-10T06:56:19.804Z,101595.66
2023-04-10T07:01:23.558Z,101595.59
2023-04-10T07:06:29.578Z,101593.03
2023-04-10T07:11:32.436Z,101592.41
2023-04-10T07:16:36.113Z,101593.47
2023-04-10T07:21:41.425Z,101585.72
2023-04-10T07:26:45.069Z,101584.88
2023-04-10T07:31:48.740Z,101579.84
2023-04-10T07:36:54.233Z,101572.94
2023-04-10T07:41:57.832Z,101580.22
2023-04-10T07:47:01.392Z,101576.84
2023-04-10T07:52:07.660Z,101575.16
2023-04-10T07:57:11.414Z,101572.59
2023-04-10T08:02:15.200Z,101575.38
2023-04-10T08:07:21.561Z,101568.44
2023-04-10T08:12:25.217Z,101552.78
2023-04-10T08:17:28.915Z,101549.28
2023-04-10T08:22:34.229Z,101539.72
2023-04-10T08:27:38.026Z,101546.84
2023-04-10T08:32:41.699Z,101536.50
2023-04-10T08:37:57.617Z,101539.28
2023-04-10T08:43:10.544Z,101540.28
2023-04-10T08:48:15.235Z,101545.47
2023-04-10T08:53:25.467Z,101538.66
2023-04-10T08:58:29.418Z,101547.28
2023-04-10T09:03:33.254Z,101549.16
2023-04-10T09:08:39.495Z,101548.59
2023-04-10T09:13:44.119Z,101538.91
2023-04-10T09:18:49.886Z,101532.94
2023-04-10T09:24:02.786Z,101538.28
2023-04-10T09:29:07.245Z,101535.84
2023-04-10T09:34:13.898Z,101529.78
2023-04-10T09:39:19.545Z,101520.22
2023-04-10T09:44:32.001Z,101511.50
2023-04-10T09:49:46.943Z,101516.00
2023-04-10T09:54:52.279Z,101513.53
2023-04-10T09:59:56.649Z,101509.19
2023-04-10T10:05:00.828Z,101496.16
2023-04-10T10:10:08.585Z,101498.84
2023-04-10T10:15:20.429Z,101491.13
2023-04-10T10:20:25.654Z,101487.69
2023-04-10T10:25:32.365Z,101491.41
2023-04-10T10:30:36.316Z,101481.00
2023-04-10T10:35:40.475Z,101488.00
2023-04-10T10:40:53.131Z,101493.22
2023-04-10T10:46:01.654Z,101489.75
2023-04-10T10:51:05.533Z,101487.31
2023-04-10T10:56:40.100Z,101483.81
2023-04-10T11:02:23.034Z,101480.34
2023-04-10T11:08:04.821Z,101478.63
2023-04-10T11:13:19.567Z,101473.50
2023-04-10T11:19:13.126Z,101469.28
2023-04-10T11:24:18.872Z,101468.44
2023-04-10T11:29:38.565Z,101470.16
2023-04-10T11:34:45.991Z,101463.38
2023-04-10T11:39:49.580Z,101461.78
2023-04-10T11:44:54.840Z,101450.44
2023-04-10T11:49:58.479Z,101454.03
2023-04-10T11:55:02.102Z,101441.97
2023-04-10T12:00:08.884Z,101442.84
2023-04-10T12:05:12.694Z,101441.94
2023-04-10T12:10:16.373Z,101443.78
2023-04-10T12:15:31.128Z,101448.16
2023-04-10T12:20:35.685Z,101451.56
2023-04-10T12:25:41.756Z,101452.66
2023-04-10T12:30:50.931Z,101448.19
2023-04-10T12:35:54.618Z,101446.47
2023-04-10T12:41:01.205Z,101430.06
2023-04-10T12:46:07.441Z,101430.88
2023-04-10T12:51:10.324Z,101432.59
2023-04-10T12:56:14.340Z,101429.25
2023-04-10T13:01:20.657Z,101431.00
2023-04-10T13:06:24.325Z,101422.47
2023-04-10T13:11:27.904Z,101426.72
2023-04-10T13:16:33.273Z,101425.06
2023-04-10T13:21:36.954Z,101425.22
2023-04-10T13:26:40.571Z,101422.56
2023-04-10T13:31:45.826Z,101432.16
2023-04-10T13:36:49.504Z,101431.31
2023-04-10T13:41:53.165Z,101439.13
2023-04-10T13:46:58.496Z,101447.78
2023-04-10T13:52:02.101Z,101460.78
2023-04-10T13:57:05.780Z,101447.69
2023-04-10T14:02:11.190Z,101457.25
2023-04-10T14:07:14.994Z,101465.09
2023-04-10T14:12:18.636Z,101456.25
2023-04-10T14:17:24.971Z,101450.78
2023-04-10T14:22:28.637Z,101445.34
2023-04-10T14:27:32.285Z,101454.59
2023-04-10T14:32:37.637Z,101454.44
2023-04-10T14:37:41.352Z,101449.63
2023-04-10T14:42:44.951Z,101451.38
2023-04-10T14:47:50.240Z,101453.13
2023-04-10T14:52:54.051Z,101451.09
2023-04-10T14:57:58.886Z,101449.25
2023-04-10T15:03:04.523Z,101458.38
2023-04-10T15:08:08.191Z,101463.47
2023-04-10T15:13:11.906Z,101465.66
2023-04-10T15:18:18.166Z,101467.84
2023-04-10T15:23:21.779Z,101483.16
2023-04-10T15:28:25.401Z,101473.53
2023-04-10T15:33:30.693Z,101482.94
2023-04-10T15:38:35.967Z,101475.63
2023-04-10T15:43:39.798Z,101474.25
2023-04-10T15:48:46.027Z,101460.34
2023-04-10T15:53:49.643Z,101460.63
2023-04-10T15:58:53.301Z,101460.00
2023-04-10T16:03:59.977Z,101461.16
2023-04-10T16:09:12.427Z,101456.53
2023-04-10T16:14:26.061Z,101457.44
2023-04-10T16:19:33.215Z,101465.53
2023-04-10T16:24:36.884Z,101455.81
2023-04-10T16:29:40.559Z,101457.13
2023-04-10T16:34:45.866Z,101457.78
2023-04-10T16:39:49.491Z,101452.41
2023-04-10T16:44:53.632Z,101454.44
2023-04-10T16:49:58.957Z,101453.47
2023-04-10T16:55:01.846Z,101443.47
2023-04-10T17:00:09.476Z,101453.84
2023-04-10T17:05:14.981Z,101448.88
2023-04-10T17:10:19.944Z,101458.38
2023-04-10T17:15:23.671Z,101464.81
2023-04-10T17:20:28.938Z,101473.53
2023-04-10T17:25:31.830Z,101480.91
2023-04-10T17:30:35.448Z,101475.69
2023-04-10T17:35:40.758Z,101472.69
2023-04-10T17:40:43.605Z,101476.63
2023-04-10T17:45:47.272Z,101476.09
2023-04-10T17:50:52.508Z,101483.38
2023-04-10T17:55:55.323Z,101483.88
2023-04-10T18:00:58.984Z,101475.28
2023-04-10T18:06:04.391Z,101478.16
2023-04-10T18:11:08.090Z,101475.63
2023-04-10T18:16:11.961Z,101465.22
2023-04-10T18:21:17.327Z,101465.03
2023-04-10T18:26:21.120Z,101468.50
2023-04-10T18:31:24.854Z,101469.25
2023-04-10T18:36:30.868Z,101465.19
2023-04-10T18:41:34.473Z,101457.56
2023-04-10T18:46:38.169Z,101449.66
2023-04-10T18:51:44.223Z,101453.38
2023-04-10T18:56:47.823Z,101446.50
2023-04-10T19:01:51.970Z,101445.06
2023-04-10T19:06:57.297Z,101431.78
2023-04-10T19:12:01.015Z,101429.53
2023-04-10T19:17:04.618Z,101422.50
2023-04-10T19:22:09.936Z,101403.75
2023-04-10T19:27:13.600Z,101398.34
2023-04-10T19:32:17.284Z,101386.25
2023-04-10T19:37:22.681Z,101378.44
2023-04-10T19:42:26.335Z,101368.88
2023-04-10T19:47:29.969Z,101366.09
2023-04-10T19:52:35.365Z,101358.75
2023-04-10T19:57:39.006Z,101349.09
2023-04-10T20:02:42.957Z,101343.31
2023-04-10T20:07:49.328Z,101340.44
2023-04-10T20:12:53.017Z,101326.78
2023-04-10T20:17:56.691Z,101337.00
2023-04-10T20:23:01.999Z,101327.19
2023-04-10T20:28:05.680Z,101322.84
2023-04-10T20:33:09.279Z,101315.81
2023-04-10T20:38:14.518Z,101316.03
2023-04-10T20:43:18.131Z,101314.63
2023-04-10T20:48:21.752Z,101315.06
2023-04-10T20:53:27.019Z,101296.09
2023-04-10T20:58:30.640Z,101291.34
2023-04-10T21:03:34.334Z,101288.56
2023-04-10T21:08:39.649Z,101279.81
2023-04-10T21:13:43.482Z,101273.56
2023-04-10T21:18:47.061Z,101258.75
2023-04-10T21:23:52.433Z,101255.09
2023-04-10T21:28:56.261Z,101247.66
2023-04-10T21:34:00.013Z,101244.53
2023-04-10T21:39:05.377Z,101248.91
2023-04-10T21:44:09.025Z,101232.94
2023-04-10T21:49:12.692Z,101241.22
2023-04-10T21:54:18.012Z,101245.84
2023-04-10T21:59:21.627Z,101253.63
2023-04-10T22:04:25.340Z,101248.69
2023-04-10T22:09:30.765Z,101250.31
2023-04-10T22:14:34.413Z,101251.91
2023-04-10T22:19:38.063Z,101249.50
2023-04-10T22:24:43.416Z,101260.53
2023-04-10T22:30:02.220Z,101247.50
2023-04-10T22:35:08.508Z,101235.66
2023-04-10T22:40:13.919Z,101252.50
2023-04-10T22:45:17.647Z,101253.31
2023-04-10T22:50:21.279Z,101249.72
2023-04-10T22:55:26.543Z,101255.09
2023-04-10T23:00:30.163Z,101263.84
2023-04-10T23:05:33.778Z,101264.44
2023-04-10T23:10:39.617Z,101264.03
2023-04-10T23:15:49.916Z,101266.47
2023-04-10T23:20:53.596Z,101261.06
2023-04-10T23:26:02.488Z,101262.31
2023-04-10T23:31:06.385Z,101270.28
2023-04-10T23:36:10.560Z,101275.81
2023-04-10T23:41:15.832Z,101278.41
2023-04-10T23:46:19.477Z,101280.44
2023-04-10T23:51:23.091Z,101277.13
2023-04-10T23:56:28.372Z,101266.13
